createdAt,value
2018-12-18T00:00:50.674Z,6.23
2018-12-18T00:03:20.680Z,5.93
2018-12-18T00:05:48.791Z,7.17
2018-12-18T00:08:16.619Z,5.73
2018-12-18T00:10:51.209Z,6.10
2018-12-18T00:13:19.343Z,5.93
2018-12-18T00:15:46.900Z,6.80
2018-12-18T00:18:14.814Z,6.50
2018-12-18T00:20:42.775Z,6.17
2018-12-18T00:23:11.275Z,6.97
2018-12-18T00:25:39.157Z,7.53
2018-12-18T00:28:08.692Z,7.30
2018-12-18T00:30:37.013Z,6.63
2018-12-18T00:33:04.973Z,7.37
2018-12-18T00:35:32.998Z,6.33
2018-12-18T00:38:01.127Z,7.27
2018-12-18T00:40:28.757Z,7.23
2018-12-18T00:42:57.132Z,6.20
2018-12-18T00:45:24.941Z,7.00
2018-12-18T00:47:54.443Z,6.93
2018-12-18T00:50:22.120Z,7.07
2018-12-18T00:52:50.174Z,6.83
2018-12-18T00:55:19.783Z,6.83
2018-12-18T00:57:47.853Z,6.67
2018-12-18T01:00:15.629Z,6.40
2018-12-18T01:02:44.754Z,6.63
2018-12-18T01:05:12.911Z,6.77
2018-12-18T01:07:40.587Z,7.07
2018-12-18T01:10:09.196Z,7.00
2018-12-18T01:12:37.215Z,7.87
2018-12-18T01:15:06.612Z,7.93
2018-12-18T01:17:34.475Z,8.27
2018-12-18T01:20:02.619Z,7.57
2018-12-18T01:22:31.520Z,8.70
2018-12-18T01:24:59.474Z,8.03
2018-12-18T01:27:27.606Z,8.97
2018-12-18T01:29:55.195Z,9.90
2018-12-18T01:32:24.210Z,8.93
2018-12-18T01:34:52.021Z,9.87
2018-12-18T01:37:19.700Z,9.77
2018-12-18T01:39:47.809Z,8.47
2018-12-18T01:42:15.637Z,7.23
2018-12-18T01:44:43.669Z,6.87
2018-12-18T01:47:11.586Z,6.50
2018-12-18T01:49:39.656Z,5.90
2018-12-18T01:52:07.262Z,5.80
2018-12-18T01:54:35.043Z,5.63
2018-12-18T01:57:02.937Z,6.17
2018-12-18T01:59:30.540Z,5.93
2018-12-18T02:01:58.118Z,5.60
2018-12-18T02:04:25.688Z,5.60
2018-12-18T02:06:53.247Z,5.30
2018-12-18T02:09:20.787Z,4.87
2018-12-18T02:11:48.323Z,5.43
2018-12-18T02:14:15.863Z,5.83
2018-12-18T02:16:43.390Z,4.87
2018-12-18T02:19:10.952Z,4.97
2018-12-18T02:21:38.497Z,5.97
2018-12-18T02:24:06.041Z,4.73
2018-12-18T02:26:33.626Z,4.57
2018-12-18T02:29:01.175Z,5.60
2018-12-18T02:31:28.694Z,5.27
2018-12-18T02:33:56.245Z,5.53
2018-12-18T02:36:23.766Z,5.07
2018-12-18T02:38:51.326Z,4.70
2018-12-18T02:41:18.886Z,5.67
2018-12-18T02:43:46.401Z,5.20
2018-12-18T02:46:15.077Z,5.60
2018-12-18T02:48:44.469Z,5.40
2018-12-18T02:51:12.068Z,5.87
2018-12-18T02:53:39.585Z,5.67
2018-12-18T02:56:07.185Z,5.40
2018-12-18T02:58:34.766Z,5.00
2018-12-18T03:01:02.315Z,4.13
2018-12-18T03:03:29.858Z,5.20
2018-12-18T03:05:57.466Z,5.63
2018-12-18T03:08:24.989Z,5.97
2018-12-18T03:10:52.566Z,7.13
2018-12-18T03:13:20.088Z,6.90
2018-12-18T03:15:47.652Z,8.37
2018-12-18T03:18:15.171Z,8.57
2018-12-18T03:20:42.727Z,8.87
2018-12-18T03:23:10.378Z,10.50
2018-12-18T03:25:37.997Z,9.57
2018-12-18T03:28:05.679Z,10.23
2018-12-18T03:30:33.425Z,9.70
2018-12-18T03:33:01.103Z,10.17
2018-12-18T03:35:29.576Z,9.23
2018-12-18T03:37:57.157Z,10.20
2018-12-18T03:40:25.424Z,9.80
2018-12-18T03:42:53.028Z,10.70
2018-12-18T03:45:20.639Z,9.97
2018-12-18T03:47:48.193Z,10.33
2018-12-18T03:50:15.769Z,9.93
2018-12-18T03:52:43.364Z,10.17
2018-12-18T03:55:10.945Z,10.73
2018-12-18T03:57:40.576Z,11.13
2018-12-18T04:00:12.915Z,11.40
2018-12-18T04:02:40.616Z,11.37
2018-12-18T04:05:09.238Z,10.97
2018-12-18T04:07:36.877Z,11.13
2018-12-18T04:10:04.928Z,10.73
2018-12-18T04:12:33.857Z,10.40
2018-12-18T04:15:04.796Z,10.40
2018-12-18T04:17:35.243Z,10.17
2018-12-18T04:20:03.933Z,9.70
2018-12-18T04:22:33.382Z,9.63
2018-12-18T04:25:01.831Z,8.53
2018-12-18T04:27:30.831Z,8.70
2018-12-18T04:29:59.854Z,9.10
2018-12-18T04:32:28.046Z,9.00
2018-12-18T04:34:56.161Z,8.60
2018-12-18T04:37:24.406Z,8.70
2018-12-18T04:39:52.644Z,8.20
2018-12-18T04:42:21.586Z,8.83
2018-12-18T04:44:49.763Z,8.70
2018-12-18T04:47:17.508Z,9.60
2018-12-18T04:49:45.069Z,8.90
2018-12-18T04:52:12.635Z,9.07
2018-12-18T04:54:40.181Z,9.30
2018-12-18T04:57:07.763Z,9.53
2018-12-18T04:59:35.341Z,9.13
2018-12-18T05:02:02.946Z,10.33
2018-12-18T05:04:30.478Z,9.23
2018-12-18T05:06:58.053Z,9.80
2018-12-18T05:09:25.603Z,9.27
2018-12-18T05:11:53.317Z,9.80
2018-12-18T05:14:20.846Z,9.17
2018-12-18T05:16:48.411Z,8.83
2018-12-18T05:19:15.985Z,8.17
2018-12-18T05:21:43.600Z,8.97
2018-12-18T05:24:11.128Z,10.73
2018-12-18T05:26:39.085Z,10.27
2018-12-18T05:29:07.793Z,10.77
2018-12-18T05:31:35.966Z,10.83
2018-12-18T05:34:03.566Z,9.83
2018-12-18T05:36:31.836Z,9.40
2018-12-18T05:39:00.237Z,10.10
2018-12-18T05:41:28.311Z,10.90
2018-12-18T05:43:56.847Z,11.30
2018-12-18T05:46:25.634Z,10.50
2018-12-18T05:48:53.756Z,11.30
2018-12-18T05:51:21.374Z,11.43
2018-12-18T05:53:48.944Z,11.57
2018-12-18T05:56:16.801Z,9.20
2018-12-18T05:58:44.638Z,11.10
2018-12-18T06:01:12.242Z,11.20
2018-12-18T06:03:39.805Z,12.10
2018-12-18T06:06:07.497Z,12.57
2018-12-18T06:08:35.093Z,10.43
2018-12-18T06:11:02.670Z,12.57
2018-12-18T06:13:30.202Z,13.83
2018-12-18T06:15:58.025Z,13.90
2018-12-18T06:18:25.625Z,12.10
2018-12-18T06:20:53.158Z,11.73
2018-12-18T06:23:20.711Z,12.67
2018-12-18T06:25:48.237Z,12.67
2018-12-18T06:28:15.789Z,15.03
2018-12-18T06:30:43.318Z,10.90
2018-12-18T06:33:10.960Z,12.10
2018-12-18T06:35:38.488Z,13.37
2018-12-18T06:38:06.033Z,14.13
2018-12-18T06:40:33.567Z,17.53
2018-12-18T06:43:01.131Z,14.80
2018-12-18T06:45:28.656Z,17.97
2018-12-18T06:47:56.213Z,18.87
2018-12-18T06:50:23.868Z,16.77
2018-12-18T06:52:52.528Z,14.63
2018-12-18T06:55:20.233Z,17.50
2018-12-18T06:57:47.787Z,20.67
2018-12-18T07:00:15.312Z,14.57
2018-12-18T07:02:43.008Z,15.53
2018-12-18T07:05:16.520Z,14.60
2018-12-18T07:07:40.186Z,17.50
2018-12-18T07:10:07.717Z,17.17
2018-12-18T07:12:35.274Z,15.73
2018-12-18T07:15:02.809Z,29.20
2018-12-18T07:17:30.375Z,62.60
2018-12-18T07:19:57.911Z,16.90
2018-12-18T07:22:25.466Z,16.13
2018-12-18T07:24:52.993Z,15.37
2018-12-18T07:27:20.553Z,16.10
2018-12-18T07:29:48.078Z,15.53
2018-12-18T07:32:15.732Z,17.67
2018-12-18T07:34:43.273Z,18.97
2018-12-18T07:37:10.831Z,15.60
2018-12-18T07:39:38.367Z,13.93
2018-12-18T07:42:05.932Z,15.27
2018-12-18T07:44:33.466Z,17.50
2018-12-18T07:47:01.023Z,14.63
2018-12-18T07:49:28.545Z,14.83
2018-12-18T07:51:56.105Z,13.67
2018-12-18T07:54:23.696Z,15.37
2018-12-18T07:56:51.547Z,16.53
2018-12-18T07:59:19.175Z,14.83
2018-12-18T08:01:46.728Z,16.10
2018-12-18T08:04:14.291Z,16.00
2018-12-18T08:06:41.817Z,15.83
2018-12-18T08:09:09.380Z,14.90
2018-12-18T08:11:36.908Z,15.53
2018-12-18T08:14:04.465Z,15.00
2018-12-18T08:16:31.988Z,15.80
2018-12-18T08:18:59.661Z,16.73
2018-12-18T08:21:27.249Z,17.93
2018-12-18T08:23:54.822Z,16.30
2018-12-18T08:26:22.352Z,17.73
2018-12-18T08:28:49.922Z,20.10
2018-12-18T08:31:17.447Z,20.93
2018-12-18T08:33:45.003Z,24.27
2018-12-18T08:36:12.542Z,27.27
2018-12-18T08:38:40.135Z,23.67
2018-12-18T08:41:08.015Z,24.93
2018-12-18T08:43:35.716Z,23.73
2018-12-18T08:46:09.913Z,23.27
2018-12-18T08:48:32.849Z,20.20
2018-12-18T08:51:00.398Z,21.23
2018-12-18T08:53:27.966Z,21.17
2018-12-18T08:55:55.495Z,20.57
2018-12-18T08:58:23.057Z,21.30
2018-12-18T09:00:50.584Z,22.53
2018-12-18T09:03:18.177Z,21.73
2018-12-18T09:05:45.728Z,20.87
2018-12-18T09:08:13.300Z,22.43
2018-12-18T09:10:40.844Z,22.83
2018-12-18T09:13:08.401Z,21.70
2018-12-18T09:15:41.472Z,24.87
2018-12-18T09:18:09.031Z,28.43
2018-12-18T09:20:36.557Z,27.63
2018-12-18T09:23:04.129Z,25.23
2018-12-18T09:25:31.646Z,24.33
2018-12-18T09:27:59.203Z,23.67
2018-12-18T09:30:26.720Z,26.17
2018-12-18T09:32:54.344Z,24.03
2018-12-18T09:35:21.873Z,22.03
2018-12-18T09:37:51.416Z,20.07
2018-12-18T09:40:20.972Z,20.40
2018-12-18T09:42:54.263Z,20.47
2018-12-18T09:45:21.843Z,19.60
2018-12-18T09:47:49.408Z,20.67
2018-12-18T09:50:17.000Z,28.03
2018-12-18T09:52:44.523Z,25.37
2018-12-18T09:55:12.177Z,18.37
2018-12-18T09:57:45.372Z,17.83
2018-12-18T10:00:12.933Z,16.97
2018-12-18T10:02:40.461Z,15.77
2018-12-18T10:05:08.978Z,16.60
2018-12-18T10:07:38.270Z,15.90
2018-12-18T10:10:07.688Z,15.43
2018-12-18T10:12:40.821Z,15.93
2018-12-18T10:15:09.180Z,14.97
2018-12-18T10:17:38.722Z,15.20
2018-12-18T10:20:07.603Z,13.27
2018-12-18T10:22:36.632Z,12.20
2018-12-18T10:25:04.652Z,12.13
2018-12-18T10:27:32.360Z,11.13
2018-12-18T10:30:00.062Z,12.93
2018-12-18T10:32:32.035Z,11.43
2018-12-18T10:34:59.897Z,11.60
2018-12-18T10:37:27.444Z,11.03
2018-12-18T10:39:55.649Z,10.73
2018-12-18T10:42:23.272Z,12.30
2018-12-18T10:44:51.363Z,13.70
2018-12-18T10:47:19.223Z,13.40
2018-12-18T10:49:48.158Z,11.50
2018-12-18T10:52:16.027Z,12.73
2018-12-18T10:54:43.793Z,9.57
2018-12-18T10:57:11.729Z,8.23
2018-12-18T10:59:39.280Z,7.93
2018-12-18T11:02:07.722Z,12.50
2018-12-18T11:04:35.550Z,11.27
2018-12-18T11:07:03.837Z,10.17
2018-12-18T11:09:31.422Z,10.10
2018-12-18T11:11:58.970Z,9.87
2018-12-18T11:14:26.467Z,7.20
2018-12-18T11:16:54.010Z,4.17
2018-12-18T11:19:22.391Z,3.77
2018-12-18T11:21:50.701Z,3.03
2018-12-18T11:24:18.297Z,3.40
2018-12-18T11:26:46.137Z,3.10
2018-12-18T11:29:13.675Z,3.30
2018-12-18T11:31:41.217Z,3.30
2018-12-18T11:34:08.728Z,2.90
2018-12-18T11:36:36.268Z,2.87
2018-12-18T11:39:06.100Z,3.13
2018-12-18T11:41:33.651Z,3.20
2018-12-18T11:44:01.151Z,3.10
2018-12-18T11:46:28.704Z,3.13
2018-12-18T11:48:56.215Z,3.10
2018-12-18T11:51:23.756Z,2.80
2018-12-18T11:53:52.482Z,2.80
2018-12-18T11:56:20.921Z,4.43
2018-12-18T11:58:49.113Z,4.03
2018-12-18T12:01:16.677Z,6.87
2018-12-18T12:03:44.300Z,12.50
2018-12-18T12:06:12.871Z,11.53
2018-12-18T12:08:40.862Z,6.13
2018-12-18T12:11:09.089Z,3.63
2018-12-18T12:13:37.062Z,2.83
2018-12-18T12:16:17.267Z,2.90
2018-12-18T12:18:46.955Z,2.50
2018-12-18T12:21:15.803Z,2.97
2018-12-18T12:23:44.281Z,2.60
2018-12-18T12:26:19.051Z,2.40
2018-12-18T12:28:47.018Z,2.40
2018-12-18T12:31:16.609Z,1.83
2018-12-18T12:33:45.238Z,2.10
2018-12-18T12:36:13.783Z,2.43
2018-12-18T12:38:42.062Z,2.10
2018-12-18T12:41:10.332Z,1.80
2018-12-18T12:43:39.140Z,2.40
2018-12-18T12:46:07.854Z,2.17
2018-12-18T12:48:41.797Z,1.63
2018-12-18T12:51:10.271Z,1.90
2018-12-18T12:53:39.234Z,2.40
2018-12-18T12:56:08.903Z,1.93
2018-12-18T12:58:38.026Z,2.07
2018-12-18T13:01:06.936Z,2.10
2018-12-18T13:03:35.077Z,2.40
2018-12-18T13:06:03.737Z,2.30
2018-12-18T13:08:35.134Z,2.63
2018-12-18T13:11:03.018Z,2.23
2018-12-18T13:13:31.810Z,2.50
2018-12-18T13:15:59.797Z,2.73
2018-12-18T13:18:28.719Z,2.17
2018-12-18T13:20:56.890Z,2.50
2018-12-18T13:23:25.209Z,3.53
2018-12-18T13:25:53.292Z,3.03
2018-12-18T13:28:21.463Z,5.20
2018-12-18T13:30:49.585Z,3.30
2018-12-18T13:33:18.548Z,6.30
2018-12-18T13:35:46.758Z,5.70
2018-12-18T13:38:14.951Z,3.37
2018-12-18T13:40:43.070Z,2.90
2018-12-18T13:43:13.168Z,2.63
2018-12-18T13:45:42.139Z,2.20
2018-12-18T13:48:10.208Z,2.47
2018-12-18T13:50:38.228Z,2.30
2018-12-18T13:53:07.362Z,2.60
2018-12-18T13:55:36.708Z,2.30
2018-12-18T13:58:05.194Z,2.50
2018-12-18T14:00:33.402Z,2.73
2018-12-18T14:03:02.160Z,3.37
2018-12-18T14:05:30.001Z,2.53
2018-12-18T14:08:00.857Z,1.83
2018-12-18T14:10:28.883Z,1.80
2018-12-18T14:12:57.947Z,1.90
2018-12-18T14:15:26.027Z,1.90
2018-12-18T14:17:56.530Z,1.50
2018-12-18T14:20:24.580Z,1.70
2018-12-18T14:22:52.668Z,1.60
2018-12-18T14:25:20.665Z,1.57
2018-12-18T14:27:48.829Z,1.53
2018-12-18T14:30:16.740Z,1.80
2018-12-18T14:32:44.712Z,1.50
2018-12-18T14:35:12.900Z,1.80
2018-12-18T14:37:40.968Z,1.70
2018-12-18T14:40:09.192Z,1.60
2018-12-18T14:42:37.942Z,2.00
2018-12-18T14:45:06.676Z,1.77
2018-12-18T14:47:34.549Z,1.60
2018-12-18T14:50:02.932Z,2.30
2018-12-18T14:52:31.183Z,2.10
2018-12-18T14:55:00.049Z,2.40
2018-12-18T14:57:28.854Z,2.20
2018-12-18T14:59:56.877Z,5.20
2018-12-18T15:02:24.996Z,4.13
2018-12-18T15:04:53.001Z,3.30
2018-12-18T15:07:21.099Z,2.53
2018-12-18T15:09:49.134Z,2.37
2018-12-18T15:12:17.765Z,2.93
2018-12-18T15:14:45.639Z,2.50
2018-12-18T15:17:14.504Z,2.00
2018-12-18T15:19:42.598Z,2.57
2018-12-18T15:22:11.676Z,3.03
2018-12-18T15:24:40.449Z,5.60
2018-12-18T15:27:09.293Z,6.37
2018-12-18T15:29:37.382Z,5.57
2018-12-18T15:32:05.883Z,4.93
2018-12-18T15:34:37.308Z,5.63
2018-12-18T15:37:09.740Z,5.57
2018-12-18T15:39:37.489Z,5.23
2018-12-18T15:42:05.675Z,4.63
2018-12-18T15:44:33.735Z,4.93
2018-12-18T15:47:02.586Z,4.57
2018-12-18T15:49:30.621Z,4.63
2018-12-18T15:51:58.195Z,5.63
2018-12-18T15:54:25.733Z,5.00
2018-12-18T15:56:53.249Z,7.13
2018-12-18T15:59:20.791Z,10.53
2018-12-18T16:01:48.688Z,12.10
2018-12-18T16:04:16.233Z,10.50
2018-12-18T16:06:43.748Z,9.07
2018-12-18T16:09:11.307Z,8.07
2018-12-18T16:11:39.678Z,7.97
2018-12-18T16:14:07.817Z,6.63
2018-12-18T16:16:35.399Z,5.53
2018-12-18T16:19:02.938Z,4.93
2018-12-18T16:21:31.420Z,5.47
2018-12-18T16:23:59.153Z,4.83
2018-12-18T16:26:26.843Z,5.60
2018-12-18T16:28:54.491Z,8.97
2018-12-18T16:31:22.214Z,11.93
2018-12-18T16:33:49.872Z,10.53
2018-12-18T16:36:17.455Z,10.73
2018-12-18T16:38:45.338Z,12.20
2018-12-18T16:41:12.968Z,10.33
2018-12-18T16:43:40.497Z,12.43
2018-12-18T16:46:08.067Z,13.87
2018-12-18T16:48:35.582Z,12.43
2018-12-18T16:51:03.191Z,16.53
2018-12-18T16:53:30.707Z,16.13
2018-12-18T16:55:58.546Z,15.77
2018-12-18T16:58:28.302Z,16.23
2018-12-18T17:00:56.117Z,15.37
2018-12-18T17:03:23.647Z,18.20
2018-12-18T17:05:51.193Z,17.40
2018-12-18T17:08:18.715Z,14.53
2018-12-18T17:10:46.362Z,12.90
2018-12-18T17:13:14.398Z,13.47
2018-12-18T17:15:42.163Z,14.37
2018-12-18T17:18:10.213Z,14.47
2018-12-18T17:20:38.688Z,13.67
2018-12-18T17:23:06.872Z,12.60
2018-12-18T17:25:34.735Z,12.00
2018-12-18T17:28:03.384Z,13.43
2018-12-18T17:30:31.911Z,10.97
2018-12-18T17:33:00.776Z,13.03
2018-12-18T17:35:28.842Z,11.90
2018-12-18T17:37:56.395Z,12.00
2018-12-18T17:40:24.143Z,12.03
2018-12-18T17:42:52.120Z,11.43
2018-12-18T17:45:21.054Z,12.90
2018-12-18T17:47:49.577Z,13.13
2018-12-18T17:50:18.553Z,12.00
2018-12-18T17:52:47.157Z,12.33
2018-12-18T17:55:14.748Z,11.00
2018-12-18T17:57:42.305Z,12.33
2018-12-18T18:00:10.041Z,13.43
2018-12-18T18:02:38.029Z,11.10
2018-12-18T18:05:06.522Z,12.40
2018-12-18T18:07:34.857Z,13.63
2018-12-18T18:10:03.106Z,10.53
2018-12-18T18:12:30.777Z,9.50
2018-12-18T18:14:58.620Z,11.53
2018-12-18T18:17:27.582Z,12.90
2018-12-18T18:19:55.329Z,12.83
2018-12-18T18:22:24.613Z,11.70
2018-12-18T18:24:54.529Z,11.77
2018-12-18T18:27:22.444Z,13.10
2018-12-18T18:29:50.216Z,11.53
2018-12-18T18:34:55.525Z,12.13
2018-12-18T18:37:23.081Z,12.20
2018-12-18T18:39:50.770Z,10.60
2018-12-18T18:42:18.332Z,12.03
2018-12-18T18:44:47.725Z,11.73
2018-12-18T18:47:15.403Z,14.17
2018-12-18T18:49:43.283Z,15.90
2018-12-18T18:52:12.391Z,17.40
2018-12-18T18:54:40.489Z,17.13
2018-12-18T18:57:08.176Z,13.13
2018-12-18T18:59:35.767Z,15.57
2018-12-18T19:02:03.846Z,15.27
2018-12-18T19:04:31.616Z,16.13
2018-12-18T19:06:59.307Z,17.10
2018-12-18T19:09:27.627Z,17.70
2018-12-18T19:11:55.308Z,20.53
2018-12-18T19:14:23.172Z,19.33
2018-12-18T19:16:50.844Z,19.40
2018-12-18T19:19:18.417Z,20.10
2018-12-18T19:21:46.335Z,23.53
2018-12-18T19:24:14.397Z,25.97
2018-12-18T19:26:44.831Z,24.27
2018-12-18T19:29:13.758Z,18.33
2018-12-18T19:31:41.524Z,14.97
2018-12-18T19:34:09.089Z,18.43
2018-12-18T19:36:38.381Z,21.77
2018-12-18T19:39:07.531Z,21.83
2018-12-18T19:41:35.156Z,21.37
2018-12-18T19:44:03.087Z,19.30
2018-12-18T19:46:31.086Z,20.87
2018-12-18T19:48:58.650Z,19.67
2018-12-18T19:51:27.002Z,19.93
2018-12-18T19:53:54.596Z,19.07
2018-12-18T19:56:23.759Z,19.33
2018-12-18T19:58:51.286Z,18.40
2018-12-18T20:01:19.029Z,20.03
2018-12-18T20:03:46.580Z,19.90
2018-12-18T20:06:14.187Z,19.50
2018-12-18T20:08:41.728Z,18.37
2018-12-18T20:11:09.259Z,19.63
2018-12-18T20:13:36.809Z,21.80
2018-12-18T20:16:04.335Z,21.57
2018-12-18T20:18:32.202Z,19.90
2018-12-18T20:20:59.920Z,19.83
2018-12-18T20:23:27.485Z,19.30
2018-12-18T20:25:55.097Z,22.97
2018-12-18T20:28:22.689Z,22.97
2018-12-18T20:30:50.217Z,22.13
2018-12-18T20:33:17.760Z,19.70
2018-12-18T20:35:45.276Z,18.97
2018-12-18T20:38:16.839Z,18.37
2018-12-18T20:40:43.312Z,20.00
2018-12-18T20:43:10.982Z,18.23
2018-12-18T20:45:38.516Z,17.13
2018-12-18T20:48:06.077Z,18.43
2018-12-18T20:50:33.605Z,16.30
2018-12-18T20:53:01.172Z,17.07
2018-12-18T20:55:28.712Z,17.63
2018-12-18T20:57:58.588Z,16.30
2018-12-18T21:00:26.217Z,16.33
2018-12-18T21:03:02.603Z,14.33
2018-12-18T21:05:30.132Z,15.20
2018-12-18T21:07:57.734Z,14.47
2018-12-18T21:10:25.265Z,14.87
2018-12-18T21:12:54.815Z,14.23
2018-12-18T21:15:23.257Z,14.70
2018-12-18T21:17:50.903Z,13.70
2018-12-18T21:20:18.438Z,13.63
2018-12-18T21:22:45.980Z,13.63
2018-12-18T21:25:18.900Z,13.17
2018-12-18T21:27:43.082Z,12.43
2018-12-18T21:30:10.766Z,12.73
2018-12-18T21:32:38.295Z,23.60
2018-12-18T21:35:05.953Z,43.57
2018-12-18T21:37:33.489Z,21.07
2018-12-18T21:40:01.040Z,21.10
2018-12-18T21:42:28.551Z,34.23
2018-12-18T21:44:56.212Z,32.93
2018-12-18T21:47:23.728Z,21.13
2018-12-18T21:49:51.289Z,12.57
2018-12-18T21:52:18.963Z,12.83
2018-12-18T21:54:46.517Z,12.57
2018-12-18T21:57:14.059Z,13.30
2018-12-18T21:59:41.609Z,12.60
2018-12-18T22:02:09.140Z,14.37
2018-12-18T22:04:36.696Z,13.03
2018-12-18T22:07:04.904Z,14.50
2018-12-18T22:09:32.467Z,14.63
2018-12-18T22:11:59.985Z,15.03
2018-12-18T22:14:27.536Z,26.83
2018-12-18T22:16:55.060Z,18.93
2018-12-18T22:19:22.610Z,17.80
2018-12-18T22:21:50.129Z,18.27
2018-12-18T22:24:17.698Z,54.87
2018-12-18T22:26:45.219Z,51.40
2018-12-18T22:29:12.813Z,27.57
2018-12-18T22:31:40.617Z,18.50
2018-12-18T22:34:08.204Z,22.13
2018-12-18T22:36:35.751Z,21.73
2018-12-18T22:39:05.818Z,17.03
2018-12-18T22:41:33.506Z,16.83
2018-12-18T22:44:01.589Z,15.97
2018-12-18T22:46:29.242Z,14.37
2018-12-18T22:48:59.376Z,16.23
2018-12-18T22:51:27.679Z,15.70
2018-12-18T22:53:55.894Z,13.93
2018-12-18T22:56:24.752Z,14.00
2018-12-18T22:58:53.114Z,14.93
2018-12-18T23:01:26.561Z,14.00
2018-12-18T23:03:54.165Z,13.17
2018-12-18T23:06:22.367Z,48.57
2018-12-18T23:08:56.016Z,15.97
2018-12-18T23:11:24.177Z,16.20
2018-12-18T23:13:53.359Z,13.97
2018-12-18T23:16:21.550Z,14.07
2018-12-18T23:18:49.694Z,13.77
2018-12-18T23:21:17.880Z,14.23
2018-12-18T23:23:46.742Z,13.03
2018-12-18T23:26:15.149Z,13.23
2018-12-18T23:28:44.150Z,11.40
2018-12-18T23:31:12.010Z,12.53
2018-12-18T23:33:39.639Z,12.03
2018-12-18T23:36:07.369Z,12.50
2018-12-18T23:38:35.126Z,14.70
2018-12-18T23:41:03.037Z,17.77
2018-12-18T23:43:30.846Z,13.57
2018-12-18T23:45:58.773Z,13.63
2018-12-18T23:48:26.783Z,12.70
2018-12-18T23:50:54.869Z,14.37
2018-12-18T23:53:22.726Z,13.53
2018-12-18T23:55:50.949Z,18.17
2018-12-18T23:58:18.917Z,12.67
